Flight Track Log - Related Links

Times and Time Zones

All times are in EDT time to prevent confusion due to time zone crossing. See the BAW581 flight status page for this flight to view local times or setup timezone preferences in your user account.

Time Position Orientation Groundspeed Altitude Reporting Facility
EDT Latitude Longitude Course Direction KTS MPH feet Rate Location/Type
Sun 02:44:42 AM 45.6550 8.7110 326° Northwest 163 188 2,100  Level FlightAware
Sun 02:45:12 AM 45.6750 8.6820 315° West 221 254 2,700 1,800 Climbing FlightAware
Sun 02:45:42 AM 45.6960 8.6440 308° West 262 302 3,900 2,727 Climbing FlightAware
Sun 02:46:07 AM 45.7130 8.6110 306° West 279 321 5,200 3,257 Climbing FlightAware
Sun 02:46:17 AM 45.7160 8.5890 281° West 288 331 5,800 3,400 Climbing FlightAware
Sun 02:46:37 AM 45.7070 8.5520 251° West 293 337 6,900 3,600 Climbing FlightAware
Sun 02:47:02 AM 45.6890 8.5130 237° Southwest 292 336 8,500 3,750 Climbing FlightAware
Sun 02:47:17 AM 45.6770 8.4880 236° Southwest 293 337 9,400 3,100 Climbing FlightAware
Sun 02:48:02 AM 45.6430 8.4150 236° Southwest 310 357 11,600 2,965 Climbing FlightAware
Sun 02:48:42 AM 45.6120 8.3490 236° Southwest 317 365 13,600 3,000 Climbing FlightAware
Sun 02:49:22 AM 45.5790 8.2720 239° Southwest 334 384 15,600 2,700 Climbing FlightAware
Sun 02:50:02 AM 45.5880 8.1860 279° West 347 399 17,200 2,400 Climbing FlightAware
Sun 02:50:52 AM 45.6160 8.0760 290° West 364 419 19,200 2,267 Climbing FlightAware
Sun 02:51:32 AM 45.6400 7.9820 290° West 378 435 20,600 1,553 Climbing FlightAware
Sun 02:52:17 AM 45.6680 7.8680 289° West 415 478 21,400 1,129 Climbing FlightAware
Sun 02:52:57 AM 45.6950 7.7620 290° West 441 507 22,200 1,575 Climbing FlightAware
Sun 02:53:37 AM 45.7220 7.6500 289° West 450 518 23,500 1,694 Climbing FlightAware
Sun 02:54:22 AM 45.7610 7.5400 297° West 455 524 24,600 1,624 Climbing FlightAware
Sun 02:55:02 AM 45.8250 7.4590 319° Northwest 457 526 25,800 1,650 Climbing FlightAware
Sun 02:55:42 AM 45.8890 7.3800 319° Northwest 466 536 26,800 1,412 Climbing FlightAware
Sun 02:56:27 AM 45.9620 7.2890 319° Northwest 476 548 27,800 1,835 Climbing FlightAware
Sun 02:57:07 AM 46.0300 7.2040 319° Northwest 469 540 29,400 2,188 Climbing FlightAware
Sun 02:57:52 AM 46.1030 7.1120 319° Northwest 467 537 30,900 2,047 Climbing FlightAware
Sun 02:58:32 AM 46.1670 7.0310 319° Northwest 460 529 32,300 1,835 Climbing FlightAware
Sun 02:59:17 AM 46.2370 6.9360 317° Northwest 462 532 33,500 1,553 Climbing FlightAware
Sun 02:59:57 AM 46.3000 6.8460 315° West 459 528 34,500 1,765 Climbing FlightAware
Sun 03:00:42 AM 46.3660 6.7520 316° Northwest 443 510 36,000 1,059 Climbing FlightAware
Sun 03:01:22 AM 46.4270 6.6660 316° Northwest 451 519 36,000 150 Level FlightAware
Sun 03:02:02 AM 46.4760 6.5950 315° West 451 519 36,200 988 Climbing FlightAware
Sun 03:02:47 AM 46.5470 6.4930 315° West 437 503 37,400 1,271 Climbing FlightAware
Sun 03:03:27 AM 46.6050 6.4090 315° West 436 502 38,000 288 Climbing FlightAware
Sun 03:04:52 AM 46.7260 6.2340 315° West 461 531 38,000  Level FlightAware
Sun 03:05:32 AM 46.7900 6.1450 316° Northwest 461 531 38,000  Level FlightAware
Sun 03:06:17 AM 46.8610 6.0770 327° Northwest 467 537 38,000  Level FlightAware
Sun 03:07:12 AM 46.9810 5.9650 328° Northwest 467 537 38,000  Level FlightAware
Sun 03:07:52 AM 47.0540 5.8980 328° Northwest 460 529 38,000  Level FlightAware
Sun 03:10:00 AM 47.1900 5.7251 319° Northwest  Level Estimated
Sun 03:11:00 AM 47.2537 5.6438 319° Northwest  Level Estimated
Sun 03:12:00 AM 47.3268 5.5500 319° Northwest  Level Estimated
Sun 03:12:32 AM 47.5430 5.4190 319° Northwest 456 525 38,000  Level FlightAware
Sun 03:13:12 AM 47.6040 5.3170 312° West 453 521 38,000  Level FlightAware
Sun 03:13:57 AM 47.6630 5.2120 310° West 450 518 38,000  Level FlightAware
Sun 03:14:52 AM 47.7340 5.0860 310° West 449 517 38,000  Level FlightAware
Sun 03:15:32 AM 47.7870 4.9910 310° West 450 518 38,000  Level FlightAware
Sun 03:16:17 AM 47.8490 4.8800 310° West 453 521 38,000  Level FlightAware
Sun 03:16:57 AM 47.9000 4.7860 309° West 454 522 38,000  Level FlightAware
Sun 03:17:37 AM 47.9540 4.6880 309° West 455 524 38,000 71 Level FlightAware
Sun 03:18:22 AM 48.0130 4.5810 310° West 453 521 38,100 71 Climbing FlightAware
Sun 03:19:02 AM 48.0660 4.4830 309° West 451 519 38,100 -71 Level FlightAware
Sun 03:19:47 AM 48.1230 4.3790 309° West 448 516 38,000 -71 Descending FlightAware
Sun 03:20:27 AM 48.1750 4.2820 309° West 444 511 38,000  Level FlightAware
Sun 03:21:07 AM 48.2300 4.1800 309° West 442 509 38,000  Level FlightAware
Sun 03:21:52 AM 48.2840 4.0810 309° West 441 507 38,000  Level FlightAware
Sun 03:22:37 AM 48.3410 3.9730 308° West 443 510 38,000  Level FlightAware
Sun 03:23:17 AM 48.3950 3.8720 309° West 448 516 38,000  Level FlightAware
Sun 03:23:57 AM 48.4470 3.7750 309° West 449 517 38,000 75 Level FlightAware
Sun 03:24:37 AM 48.5000 3.6760 309° West 450 518 38,100 75 Climbing FlightAware
Sun 03:25:17 AM 48.5570 3.5970 317° Northwest 448 516 38,100 -67 Level FlightAware
Sun 03:26:07 AM 48.6460 3.5050 326° Northwest 448 516 38,000 -67 Descending FlightAware
Sun 03:26:47 AM 48.7150 3.4320 325° Northwest 443 510 38,000  Level FlightAware
Sun 03:27:07 AM 48.7508 3.3949 326° Northwest 443 510 38,000  Level FlightAware
Sun 03:28:12 AM 48.8510 3.2900 325° Northwest 442 509 38,000  Level FlightAware
Sun 03:28:17 AM 48.8693 3.2708 325° Northwest 442 509 38,000  Level FlightAware
Sun 03:28:52 AM 48.9200 3.2170 325° Northwest 443 510 38,000  Level FlightAware
Sun 03:29:32 AM 48.9910 3.1430 326° Northwest 442 509 38,000 -1,343 Level FlightAware
Sun 03:29:59 AM 49.0410 3.0868 326° Northwest 1 1 36,500 -2,000 Descending FlightAware
Sun 03:30:17 AM 49.0719 3.0606 331° Northwest 1 1 36,500 5,000 Level FlightAware
Sun 03:30:17 AM 49.0610 3.0690 331° Northwest 442 509 38,000  Climbing FlightAware
Sun 03:30:35 AM 49.1008 3.0244 331° Northwest 1 1 36,500  Descending FlightAware
Sun 03:30:46 AM 49.1140 2.9975 331° Northwest 443 510 38,000  Climbing FlightAware
Sun 03:31:05 AM 49.1440 2.9579 331° Northwest 1 1 36,500 -2,432 Descending FlightAware
Sun 03:31:23 AM 49.1678 2.9123 309° West 1 1 36,500 2,432 Level FlightAware
Sun 03:31:42 AM 49.1900 2.8790 309° West 443 510 38,000 3,214 Climbing FlightAware
Sun 03:31:51 AM 49.2070 2.8525 314° West 443 510 38,000 -3,103 Level FlightAware
Sun 03:32:11 AM 49.2370 2.8097 314° West 1 1 36,500  Descending FlightAware
Sun 03:32:22 AM 49.2514 2.7837 314° West 442 509 38,000  Climbing FlightAware
Sun 03:32:47 AM 49.2875 2.7259 314° West 1 1 36,500 -2,093 Descending FlightAware
Sun 03:33:05 AM 49.3134 2.6870 315° West 1 1 36,500 4,500 Level FlightAware
Sun 03:33:07 AM 49.3110 2.6890 315° West 439 505 38,000  Climbing FlightAware
Sun 03:33:23 AM 49.3387 2.6464 315° West 1 1 36,500 -2,647 Descending FlightAware
Sun 03:33:41 AM 49.3638 2.6050 313° West 1 1 36,500 3,750 Level FlightAware
Sun 03:33:47 AM 49.3660 2.6030 313° West 437 503 38,000  Climbing FlightAware
Sun 03:34:16 AM 49.4135 2.5259 313° West 1 1 36,500  Descending FlightAware
Sun 03:34:22 AM 49.4150 2.5240 313° West 429 494 38,000  Climbing FlightAware
Sun 03:34:58 AM 49.4716 2.4332 313° West 442 509 36,500  Descending FlightAware
Sun 03:35:12 AM 49.4840 2.4140 313° West 433 498 38,000 -143 Climbing FlightAware
Sun 03:35:40 AM 49.5299 2.3405 313° West 442 509 36,400  Descending FlightAware
Sun 03:35:52 AM 49.5400 2.3300 313° West 431 496 38,000 4,800 Climbing FlightAware
Sun 03:36:00 AM 49.5607 2.3062 323° Northwest 431 496 38,000 -4,000 Level FlightAware
Sun 03:36:16 AM 49.5884 2.2773 323° Northwest 442 509 36,400  Descending FlightAware
Sun 03:36:32 AM 49.6124 2.2525 323° Northwest 431 496 38,000  Climbing FlightAware
Sun 03:36:52 AM 49.6471 2.2157 323° Northwest 442 509 36,400 -2,526 Descending FlightAware
Sun 03:37:10 AM 49.6768 2.1849 326° Northwest 442 509 36,400 3,840 Level FlightAware
Sun 03:37:17 AM 49.6850 2.1760 326° Northwest 429 494 38,000  Climbing FlightAware
Sun 03:37:40 AM 49.7258 2.1342 326° Northwest 442 509 36,400 -2,341 Descending FlightAware
Sun 03:37:58 AM 49.7556 2.1029 326° Northwest 442 509 36,400 4,364 Level FlightAware
Sun 03:38:02 AM 49.7560 2.1020 326° Northwest 429 494 38,000 200 Climbing FlightAware
Sun 03:38:28 AM 49.8045 2.0518 326° Northwest 440 506 36,500  Descending FlightAware
Sun 03:38:42 AM 49.8220 2.0330 326° Northwest 430 495 38,000  Climbing FlightAware
Sun 03:39:10 AM 49.8736 1.9795 326° Northwest 440 506 36,500  Descending FlightAware
Sun 03:39:22 AM 49.8850 1.9670 326° Northwest 431 496 38,000  Climbing FlightAware
Sun 03:39:40 AM 49.9226 1.9279 326° Northwest 442 509 36,500 -2,143 Descending FlightAware
Sun 03:40:04 AM 49.9621 1.8861 326° Northwest 440 506 36,500 3,333 Level FlightAware
Sun 03:40:07 AM 49.9620 1.8850 326° Northwest 433 498 38,000  Climbing FlightAware
Sun 03:40:22 AM 49.9918 1.8546 326° Northwest 442 509 36,500 -2,727 Descending FlightAware
Sun 03:40:40 AM 50.0215 1.8230 326° Northwest 440 506 36,500 3,600 Level FlightAware
Sun 03:40:47 AM 50.0260 1.8170 326° Northwest 434 499 38,000  Climbing FlightAware
Sun 03:41:04 AM 50.0610 1.7805 326° Northwest 440 506 36,500 -2,571 Descending FlightAware
Sun 03:41:22 AM 50.0885 1.7443 320° Northwest 440 506 36,500 3,214 Level FlightAware
Sun 03:41:32 AM 50.0960 1.7340 320° Northwest 435 501 38,000 -1,200 Climbing FlightAware
Sun 03:41:52 AM 50.1351 1.6839 320° Northwest 442 509 35,900 -1,895 Descending FlightAware
Sun 03:42:10 AM 50.1621 1.6485 320° Northwest 429 494 36,800 -2,333 Climbing FlightAware
Sun 03:42:28 AM 50.1898 1.6129 320° Northwest 440 506 34,500 -2,909 Descending FlightAware
Sun 03:42:43 AM 50.2118 1.5834 320° Northwest 434 499 35,200 -2,800 Climbing FlightAware
Sun 03:42:58 AM 50.2356 1.5533 320° Northwest 446 513 33,100 -2,400 Descending FlightAware
Sun 03:43:13 AM 50.2588 1.5226 320° Northwest 430 495 34,000 -2,600 Climbing FlightAware
Sun 03:43:28 AM 50.2815 1.4933 320° Northwest 446 513 31,800 -2,516 Descending FlightAware
Sun 03:43:44 AM 50.3058 1.4611 320° Northwest 430 495 32,700 -2,667 Climbing FlightAware
Sun 03:44:04 AM 50.3363 1.4212 320° Northwest 438 504 30,200 -2,500 Descending FlightAware
Sun 03:44:20 AM 50.3596 1.3903 320° Northwest 425 489 31,200 -2,000 Climbing FlightAware
Sun 03:44:40 AM 50.3904 1.3498 320° Northwest 430 495 29,000 -2,000 Descending FlightAware
Sun 03:44:50 AM 50.4049 1.3307 320° Northwest 417 480 30,200 -2,229 Climbing FlightAware
Sun 03:45:15 AM 50.4426 1.2810 320° Northwest 420 483 27,700 -2,167 Descending FlightAware
Sun 03:45:26 AM 50.4571 1.2618 320° Northwest 409 471 28,900 -2,333 Climbing FlightAware
Sun 03:45:51 AM 50.4945 1.2124 320° Northwest 410 472 26,300 -2,471 Descending FlightAware
Sun 03:46:00 AM 50.5055 1.1979 320° Northwest 408 470 27,500 -2,750 Climbing FlightAware
Sun 03:46:15 AM 50.5289 1.1673 320° Northwest 408 470 25,200 -2,400 Descending FlightAware
Sun 03:46:30 AM 50.5492 1.1398 320° Northwest 406 467 26,300 -1,784 Climbing FlightAware
Sun 03:46:52 AM 50.5809 1.0978 320° Northwest 400 460 24,100 -1,688 Descending FlightAware
Sun 03:47:02 AM 50.5937 1.0804 320° Northwest 396 456 25,400 -2,069 Climbing FlightAware
Sun 03:47:21 AM 50.6220 1.0428 320° Northwest 392 451 23,100 -2,400 Descending FlightAware
Sun 03:47:37 AM 50.6421 1.0157 320° Northwest 392 451 24,000 -2,167 Climbing FlightAware
Sun 03:47:57 AM 50.6713 0.9766 320° Northwest 388 447 21,800 -1,818 Descending FlightAware
Sun 03:48:10 AM 50.6872 0.9551 320° Northwest 385 443 23,000 -1,600 Climbing FlightAware
Sun 03:48:27 AM 50.7118 0.9225 320° Northwest 382 440 21,000 -1,600 Descending FlightAware
Sun 03:48:40 AM 50.7278 0.9006 320° Northwest 373 429 22,200 -2,000 Climbing FlightAware
Sun 03:48:57 AM 50.7508 0.8698 320° Northwest 374 430 20,000 -2,294 Descending FlightAware
Sun 03:49:14 AM 50.7726 0.8405 320° Northwest 372 428 20,900 -327 Climbing FlightAware
Sun 03:49:52 AM 50.8180 0.7790 319° Northwest 366 421 19,700 -2,087 Descending FlightAware
Sun 03:50:00 AM 50.8312 0.7616 320° Northwest 366 421 19,300 -6,261 Descending FlightAware
Sun 03:50:15 AM 50.8521 0.7336 320° Northwest 362 417 17,300 -1,622 Descending FlightAware
Sun 03:50:37 AM 50.8760 0.7010 320° Northwest 357 411 18,300 649 Climbing FlightAware
Sun 03:50:52 AM 50.8969 0.6724 319° Northwest 354 407 17,700 -5,250 Descending FlightAware
Sun 03:51:09 AM 50.9193 0.6423 319° Northwest 352 405 15,500 -2,200 Descending FlightAware
Sun 03:51:22 AM 50.9346 0.6216 319° Northwest 355 409 16,600 -2,200 Climbing FlightAware
Sun 03:51:39 AM 50.9567 0.5917 319° Northwest 348 400 14,400 -1,875 Descending FlightAware
Sun 03:51:54 AM 50.9738 0.5679 319° Northwest 349 402 15,600 -1,600 Climbing FlightAware
Sun 03:52:09 AM 50.9934 0.5413 319° Northwest 342 394 13,600 -1,161 Descending FlightAware
Sun 03:52:25 AM 51.0120 0.5158 319° Northwest 347 399 15,000 -500 Climbing FlightAware
Sun 03:52:45 AM 51.0369 0.4818 319° Northwest 340 391 13,300 -529 Descending FlightAware
Sun 03:52:59 AM 51.0526 0.4602 319° Northwest 340 391 14,700 -600 Climbing FlightAware
Sun 03:53:15 AM 51.0713 0.4348 319° Northwest 318 366 13,000 -522 Descending FlightAware
Sun 03:53:22 AM 51.0775 0.4247 319° Northwest 318 366 14,500 -500 Climbing FlightAware
Sun 03:53:39 AM 51.0964 0.3954 319° Northwest 304 350 12,800 -581 Descending FlightAware
Sun 03:53:53 AM 51.1088 0.3761 319° Northwest 293 337 14,200 -400 Climbing FlightAware
Sun 03:54:09 AM 51.1251 0.3509 319° Northwest 286 329 12,600 -387 Descending FlightAware
Sun 03:54:24 AM 51.1378 0.3311 319° Northwest 274 315 14,000 -600 Climbing FlightAware
Sun 03:54:39 AM 51.1518 0.3095 319° Northwest 266 306 12,300 -909 Descending FlightAware
Sun 03:54:57 AM 51.1664 0.2867 319° Northwest 262 302 13,500 875 Climbing FlightAware
Sun 03:55:27 AM 51.1925 0.2465 316° Northwest 256 295 13,000 -1,180 Descending FlightAware
Sun 03:55:58 AM 51.2187 0.2067 316° Northwest 257 296 12,300 -3,000 Descending FlightAware
Sun 03:56:21 AM 51.2395 0.1752 316° Northwest 258 297 10,300 -1,200 Descending FlightAware
Sun 03:56:28 AM 51.2449 0.1670 316° Northwest 253 291 11,700 -1,250 Climbing FlightAware
Sun 03:56:45 AM 51.2598 0.1440 316° Northwest 256 295 9,800 -1,355 Descending FlightAware
Sun 03:56:59 AM 51.2710 0.1271 316° Northwest 257 296 11,000 667 Climbing FlightAware
Sun 03:57:30 AM 51.2971 0.0874 316° Northwest 254 292 10,300 -3,261 Descending FlightAware
Sun 03:57:45 AM 51.3107 0.0667 316° Northwest 252 290 8,500 -1,125 Descending FlightAware
Sun 03:57:46 AM 51.3108 0.0665 316° Northwest 253 291 10,000 4,125 Climbing FlightAware
Sun 03:58:01 AM 51.3236 0.0466 316° Northwest 257 296 9,600 -1,448 Descending FlightAware
Sun 03:58:15 AM 51.3357 0.0283 317° Northwest 255 293 9,300 -1,000 Descending FlightAware
Sun 03:58:19 AM 51.3391 0.0226 314° West 252 290 9,300 -667 Level FlightAware
Sun 03:58:24 AM 51.3421 0.0161 307° West 250 288 9,200 -1,333 Descending FlightAware
Sun 03:58:28 AM 51.3444 0.0097 300° West 247 284 9,100 -1,500 Descending FlightAware
Sun 03:58:32 AM 51.3463 0.0015 290° West 246 283 9,000 -750 Descending FlightAware
Sun 03:58:36 AM 51.3471 -0.0040 283° West 244 281 9,000 -857 Level FlightAware
Sun 03:58:39 AM 51.3475 -0.0105 276° West 242 278 8,900 -1,714 Descending FlightAware
Sun 03:58:43 AM 51.3475 -0.0169 270° West 242 278 8,800 -750 Descending FlightAware
Sun 03:58:47 AM 51.3469 -0.0247 263° West 240 276 8,800 -857 Level FlightAware
Sun 03:58:50 AM 51.3462 -0.0302 258° West 239 275 8,700 -1,000 Descending FlightAware
Sun 03:58:59 AM 51.3439 -0.0441 255° West 236 272 8,600 -1,250 Descending FlightAware
Sun 03:59:14 AM 51.3391 -0.0706 254° West 237 273 8,200 -1,125 Descending FlightAware
Sun 03:59:31 AM 51.3341 -0.0973 253° West 235 270 8,000 -750 Descending FlightAware
Sun 03:59:46 AM 51.3294 -0.1224 253° West 227 261 7,800 -600 Descending FlightAware
Sun 04:00:01 AM 51.3246 -0.1470 253° West 220 253 7,700 -429 Descending FlightAware
Sun 04:00:14 AM 51.3210 -0.1656 253° West 213 245 7,600 -750 Descending FlightAware
Sun 04:00:17 AM 51.3203 -0.1701 256° West 211 243 7,500 -1,000 Descending FlightAware
Sun 04:00:20 AM 51.3197 -0.1750 259° West 210 242 7,500  Level FlightAware
Sun 04:00:23 AM 51.3195 -0.1795 266° West 208 239 7,500  Level FlightAware
Sun 04:00:26 AM 51.3196 -0.1841 272° West 208 239 7,500 -857 Level FlightAware
Sun 04:00:30 AM 51.3203 -0.1901 281° West 206 237 7,400 -857 Descending FlightAware
Sun 04:00:33 AM 51.3214 -0.1946 291° West 204 235 7,400 -857 Level FlightAware
Sun 04:00:37 AM 51.3230 -0.1991 300° West 203 234 7,300 -600 Descending FlightAware
Sun 04:00:43 AM 51.3273 -0.2069 311° West 203 234 7,300 -600 Level FlightAware
Sun 04:00:47 AM 51.3297 -0.2096 324° Northwest 202 232 7,200 -750 Descending FlightAware
Sun 04:00:51 AM 51.3338 -0.2127 335° Northwest 202 232 7,200 -750 Level FlightAware
Sun 04:00:55 AM 51.3368 -0.2141 344° North 203 234 7,100 -1,500 Descending FlightAware
Sun 04:00:59 AM 51.3406 -0.2147 354° North 203 234 7,000 -750 Descending FlightAware
Sun 04:01:03 AM 51.3446 -0.2142 North 205 236 7,000 -1,200 Level FlightAware
Sun 04:01:09 AM 51.3498 -0.2119 16° North 206 237 6,800 -1,200 Descending FlightAware
Sun 04:01:13 AM 51.3530 -0.2092 28° Northeast 207 238 6,800 -857 Level FlightAware
Sun 04:01:16 AM 51.3554 -0.2065 35° Northeast 207 238 6,700 -1,714 Descending FlightAware
Sun 04:01:20 AM 51.3584 -0.2018 45° Northeast 207 238 6,600 -750 Descending FlightAware
Sun 04:01:24 AM 51.3604 -0.1973 55° Northeast 207 238 6,600 -750 Level FlightAware
Sun 04:01:28 AM 51.3623 -0.1907 65° Northeast 207 238 6,500 -1,714 Descending FlightAware
Sun 04:01:31 AM 51.3632 -0.1863 72° East 207 238 6,400 -857 Descending FlightAware
Sun 04:01:35 AM 51.3641 -0.1807 76° East 207 238 6,400 -1,000 Level FlightAware
Sun 04:01:43 AM 51.3655 -0.1684 80° East 206 237 6,200 -750 Descending FlightAware
Sun 04:01:59 AM 51.3676 -0.1456 82° East 204 235 6,100 -581 Descending FlightAware
Sun 04:02:14 AM 51.3697 -0.1232 81° East 204 235 5,900 -774 Descending FlightAware
Sun 04:02:30 AM 51.3720 -0.0992 81° East 200 230 5,700 -727 Descending FlightAware
Sun 04:02:47 AM 51.3744 -0.0742 81° East 195 224 5,500 -3,455 Descending FlightAware
Sun 04:03:03 AM 51.3766 -0.0510 81° East 192 221 3,800 -667 Descending FlightAware
Sun 04:03:05 AM 51.3768 -0.0490 81° East 193 222 5,300 4,941 Climbing FlightAware
Sun 04:03:20 AM 51.3791 -0.0277 80° East 193 222 5,200 -316 Descending FlightAware
Sun 04:03:24 AM 51.3804 -0.0227 68° East 193 222 5,200 -750 Level FlightAware
Sun 04:03:28 AM 51.3821 -0.0183 58° Northeast 193 222 5,100 -750 Descending FlightAware
Sun 04:03:32 AM 51.3848 -0.0134 48° Northeast 194 223 5,100 -600 Level FlightAware
Sun 04:03:38 AM 51.3892 -0.0085 35° Northeast 194 223 5,000 -545 Descending FlightAware
Sun 04:03:43 AM 51.3932 -0.0060 21° North 194 223 5,000  Level FlightAware
Sun 04:03:47 AM 51.3971 -0.0049 10° North 194 223 5,000 -667 Level FlightAware
Sun 04:03:52 AM 51.4006 -0.0045 North 194 223 4,900 -500 Descending FlightAware
Sun 04:03:59 AM 51.4071 -0.0044 360° North 194 223 4,900 -375 Level FlightAware
Sun 04:04:08 AM 51.4155 -0.0048 358° North 193 222 4,800 -429 Descending FlightAware
Sun 04:04:13 AM 51.4196 -0.0056 353° North 193 222 4,800 -750 Level FlightAware
Sun 04:04:16 AM 51.4225 -0.0069 344° North 192 221 4,700 -1,000 Descending FlightAware
Sun 04:04:19 AM 51.4252 -0.0089 336° Northwest 192 221 4,700  Level FlightAware
Sun 04:04:23 AM 51.4280 -0.0119 326° Northwest 192 221 4,700 -750 Level FlightAware
Sun 04:04:27 AM 51.4303 -0.0151 319° Northwest 191 220 4,600 -667 Descending FlightAware
Sun 04:04:32 AM 51.4329 -0.0205 308° West 191 220 4,600 -545 Level FlightAware
Sun 04:04:38 AM 51.4361 -0.0289 301° West 192 221 4,500 -333 Descending FlightAware
Sun 04:04:50 AM 51.4410 -0.0431 299° West 190 219 4,500 -444 Level FlightAware
Sun 04:05:05 AM 51.4473 -0.0624 298° West 188 216 4,300 -581 Descending FlightAware
Sun 04:05:21 AM 51.4533 -0.0812 297° West 188 216 4,200 -375 Descending FlightAware
Sun 04:05:37 AM 51.4595 -0.1012 296° West 189 217 4,100 -500 Descending FlightAware
Sun 04:05:45 AM 51.4622 -0.1115 293° West 189 217 4,000 -923 Descending FlightAware
Sun 04:05:50 AM 51.4634 -0.1185 285° West 189 217 3,900 -1,333 Descending FlightAware
Sun 04:05:54 AM 51.4641 -0.1246 280° West 190 219 3,800 -1,333 Descending FlightAware
Sun 04:05:59 AM 51.4646 -0.1318 276° West 189 217 3,700 -923 Descending FlightAware
Sun 04:06:07 AM 51.4650 -0.1421 274° West 188 216 3,600 -1,043 Descending FlightAware
Sun 04:06:22 AM 51.4654 -0.1632 272° West 189 217 3,300 -1,043 Descending FlightAware
Sun 04:06:30 AM 51.4656 -0.1747 272° West 190 219 3,200 -5,217 Descending FlightAware
Sun 04:06:45 AM 51.4657 -0.1962 272° West 192 221 1,300 -1,125 Descending FlightAware
Sun 04:06:46 AM 51.4656 -0.1968 272° West 189 217 2,900 7,636 Climbing FlightAware
Sun 04:06:56 AM 51.4655 -0.2107 269° West 180 207 2,700 -960 Descending FlightAware
Sun 04:07:11 AM 51.4655 -0.2303 270° West 168 193 2,500 -968 Descending FlightAware
Sun 04:07:27 AM 51.4655 -0.2489 270° West 159 183 2,200 -1,154 Descending FlightAware
Sun 04:07:37 AM 51.4655 -0.2600 270° West 152 175 2,000 -4,000 Descending FlightAware
Sun 04:07:57 AM 51.4655 -0.2836 270° West 158 182 200 -545 Descending FlightAware
Sun 04:07:59 AM 51.4654 -0.2846 270° West 151 174 1,800 646 Climbing FlightAware
Sun 04:09:02 AM 51.4650 -0.3520 269° West 134 154 900 -818 Descending FlightAware
Sun 04:09:27 AM 51.4650 -0.3760 270° West 125 144 600 -655 Descending FlightAware
Sun 04:09:57 AM 51.4650 -0.4010 270° West 124 143 300 -600 Descending FlightAware
Sun 04:10:22 AM 51.4650 -0.4220 270° West 126 145 -720 Descending FlightAware
Sun 04:11:02 AM 51.4650 -0.4470 270° West 126 145  Level FlightAware
Sun 04:13:00 AM 51.4775 -0.4614 324° Northwest  Level Estimated
Sun 04:14:00 AM 51.4775 -0.4614 90° East  Level Estimated
Sun 04:15:00 AM 51.4775 -0.4614 90° East  Level Estimated
Sun 04:16:00 AM 51.4775 -0.4614 90° East  Level Estimated
Sun 04:17:00 AM 51.4775 -0.4614 90° East  Level Estimated
Sun 04:18:00 AM 51.4775 -0.4614 90° East  Level Estimated
Sun 04:19:00 AM 51.4775 -0.4614 90° East  Level Estimated
Sun 04:20:00 AM 51.4775 -0.4614 90° East  Level Estimated
Sun 04:21:00 AM 51.4775 -0.4614 90° East  Level Estimated
Sun 04:22:00 AM 51.4775 -0.4614 90° East  Level Estimated
Sun 04:23:00 AM 51.4775 -0.4614 90° East  Level Estimated

Login

Don't have an account? Register now (free) for customized features, flight alerts, and more!